createdAt,value
2023-10-27T00:01:21.559Z,92655.94
2023-10-27T00:03:48.362Z,92651.25
2023-10-27T00:06:15.622Z,92656.53
2023-10-27T00:08:42.455Z,92648.91
2023-10-27T00:11:09.564Z,92646.38
2023-10-27T00:13:36.360Z,92631.56
2023-10-27T00:16:11.431Z,92649.34
2023-10-27T00:18:38.892Z,92649.81
2023-10-27T00:21:05.903Z,92644.63
2023-10-27T00:23:33.632Z,92639.06
2023-10-27T00:26:01.663Z,92634.66
2023-10-27T00:28:29.023Z,92628.41
2023-10-27T00:30:55.846Z,92636.94
2023-10-27T00:33:23.252Z,92623.44
2023-10-27T00:35:53.989Z,92630.78
2023-10-27T00:38:21.501Z,92621.69
2023-10-27T00:40:48.602Z,92621.59
2023-10-27T00:43:19.447Z,92607.81
2023-10-27T00:45:53.573Z,92602.50
2023-10-27T00:48:21.757Z,92605.34
2023-10-27T00:50:50.069Z,92596.94
2023-10-27T00:53:20.891Z,92601.41
2023-10-27T00:55:49.848Z,92594.13
2023-10-27T00:58:17.075Z,92593.56
2023-10-27T01:00:44.508Z,92596.22
2023-10-27T01:03:11.264Z,92604.66
2023-10-27T01:05:38.138Z,92603.25
2023-10-27T01:08:05.101Z,92602.19
2023-10-27T01:10:32.331Z,92603.22
2023-10-27T01:12:59.317Z,92598.66
2023-10-27T01:15:26.943Z,92598.44
2023-10-27T01:17:53.782Z,92599.34
2023-10-27T01:20:20.841Z,92600.94
2023-10-27T01:22:48.736Z,92603.97
2023-10-27T01:25:16.784Z,92599.31
2023-10-27T01:27:44.499Z,92604.88
2023-10-27T01:30:12.198Z,92604.03
2023-10-27T01:32:41.731Z,92601.47
2023-10-27T01:35:09.357Z,92600.97
2023-10-27T01:37:36.592Z,92607.66
2023-10-27T01:40:06.811Z,92596.38
2023-10-27T01:42:36.002Z,92602.25
2023-10-27T01:45:06.657Z,92608.47
2023-10-27T01:47:34.182Z,92610.66
2023-10-27T01:50:01.043Z,92606.59
2023-10-27T01:52:27.988Z,92609.69
2023-10-27T01:54:54.958Z,92618.44
2023-10-27T01:57:24.358Z,92627.78
2023-10-27T01:59:52.280Z,92627.78
2023-10-27T02:02:19.561Z,92627.13
2023-10-27T02:04:46.747Z,92636.47
2023-10-27T02:07:14.178Z,92647.97
2023-10-27T02:09:41.044Z,92647.50
2023-10-27T02:12:11.717Z,92659.47
2023-10-27T02:14:39.805Z,92663.19
2023-10-27T02:17:06.844Z,92659.00
2023-10-27T02:19:33.780Z,92658.38
2023-10-27T02:22:01.035Z,92658.69
2023-10-27T02:24:29.242Z,92660.72
2023-10-27T02:26:56.148Z,92671.91
2023-10-27T02:29:23.088Z,92665.69
2023-10-27T02:31:49.820Z,92672.53
2023-10-27T02:34:16.680Z,92671.06
2023-10-27T02:36:43.589Z,92668.63
2023-10-27T02:39:10.461Z,92666.75
2023-10-27T02:41:37.431Z,92680.28
2023-10-27T02:44:04.707Z,92680.91
2023-10-27T02:46:33.275Z,92679.97
2023-10-27T02:49:01.548Z,92680.16
2023-10-27T02:51:28.418Z,92676.41
2023-10-27T02:53:55.502Z,92672.22
2023-10-27T02:56:22.480Z,92671.13
2023-10-27T02:58:49.231Z,92679.38
2023-10-27T03:01:16.266Z,92685.03
2023-10-27T03:03:45.047Z,92686.97
2023-10-27T03:06:13.342Z,92692.72
2023-10-27T03:08:41.354Z,92685.59
2023-10-27T03:11:09.479Z,92685.13
2023-10-27T03:13:37.050Z,92686.69
2023-10-27T03:16:04.686Z,92688.38
2023-10-27T03:18:32.044Z,92698.34
2023-10-27T03:21:00.551Z,92708.13
2023-10-27T03:23:28.620Z,92701.28
2023-10-27T03:25:56.148Z,92708.09
2023-10-27T03:28:23.084Z,92718.41
2023-10-27T03:30:51.092Z,92715.28
2023-10-27T03:33:18.537Z,92718.06
2023-10-27T03:35:47.931Z,92720.06
2023-10-27T03:38:15.261Z,92706.06
2023-10-27T03:40:44.465Z,92712.97
2023-10-27T03:43:11.980Z,92705.13
2023-10-27T03:45:38.877Z,92708.47
2023-10-27T03:48:05.959Z,92703.91
2023-10-27T03:50:33.118Z,92707.34
2023-10-27T03:53:00.104Z,92712.94
2023-10-27T03:55:27.107Z,92719.94
2023-10-27T03:57:56.565Z,92713.56
2023-10-27T04:00:26.307Z,92704.56
2023-10-27T04:02:53.313Z,92702.84
2023-10-27T04:05:20.269Z,92704.38
2023-10-27T04:07:47.096Z,92707.97
2023-10-27T04:10:14.001Z,92724.16
2023-10-27T04:12:40.881Z,92723.69
2023-10-27T04:15:10.135Z,92742.03
2023-10-27T04:17:37.576Z,92739.97
2023-10-27T04:20:05.642Z,92744.81
2023-10-27T04:22:32.487Z,92738.91
2023-10-27T04:24:59.466Z,92736.44
2023-10-27T04:27:26.511Z,92742.97
2023-10-27T04:29:53.378Z,92741.88
2023-10-27T04:32:20.468Z,92735.97
2023-10-27T04:34:47.316Z,92740.47
2023-10-27T04:37:14.438Z,92735.84
2023-10-27T04:39:41.439Z,92739.69
2023-10-27T04:42:09.713Z,92745.44
2023-10-27T04:44:36.798Z,92742.53
2023-10-27T04:47:03.854Z,92741.09
2023-10-27T04:49:30.824Z,92736.59
2023-10-27T04:51:57.661Z,92731.44
2023-10-27T04:54:24.495Z,92731.28
2023-10-27T04:56:51.297Z,92717.91
2023-10-27T04:59:18.065Z,92720.25
2023-10-27T05:01:44.989Z,92718.81
2023-10-27T05:04:12.026Z,92715.75
2023-10-27T05:06:39.003Z,92710.53
2023-10-27T05:09:05.909Z,92719.34
2023-10-27T05:11:32.710Z,92725.72
2023-10-27T05:13:59.464Z,92715.19
2023-10-27T05:16:26.236Z,92709.53
2023-10-27T05:18:53.094Z,92717.28
2023-10-27T05:21:20.118Z,92706.44
2023-10-27T05:23:46.991Z,92703.63
2023-10-27T05:26:13.762Z,92704.38
2023-10-27T05:28:40.688Z,92696.59
2023-10-27T05:31:07.502Z,92700.59
2023-10-27T05:33:34.430Z,92703.78
2023-10-27T05:36:01.199Z,92698.63
2023-10-27T05:38:27.997Z,92705.78
2023-10-27T05:40:54.832Z,92702.38
2023-10-27T05:43:21.696Z,92712.66
2023-10-27T05:45:48.583Z,92711.81
2023-10-27T05:48:15.424Z,92709.38
2023-10-27T05:50:42.333Z,92715.28
2023-10-27T05:53:09.245Z,92712.28
2023-10-27T05:55:36.278Z,92718.22
2023-10-27T05:58:03.608Z,92724.13
2023-10-27T06:00:30.462Z,92732.25
2023-10-27T06:02:57.731Z,92741.88
2023-10-27T06:05:24.643Z,92750.00
2023-10-27T06:07:51.979Z,92759.28
2023-10-27T06:10:19.520Z,92761.47
2023-10-27T06:12:46.421Z,92766.56
2023-10-27T06:15:13.456Z,92763.19
2023-10-27T06:17:40.420Z,92765.81
2023-10-27T06:20:16.834Z,92769.91
2023-10-27T06:22:45.529Z,92760.69
2023-10-27T06:25:12.578Z,92740.94
2023-10-27T06:27:39.554Z,92748.44
2023-10-27T06:30:07.596Z,92764.59
2023-10-27T06:32:34.501Z,92760.25
2023-10-27T06:35:01.551Z,92768.78
2023-10-27T06:37:28.493Z,92768.28
2023-10-27T06:40:00.598Z,92767.34
2023-10-27T06:42:27.670Z,92774.69
2023-10-27T06:44:54.548Z,92769.06
2023-10-27T06:47:23.592Z,92769.88
2023-10-27T06:49:50.948Z,92776.22
2023-10-27T06:52:17.812Z,92772.44
2023-10-27T06:54:45.049Z,92772.44
2023-10-27T06:57:12.121Z,92776.31
2023-10-27T06:59:38.986Z,92771.06
2023-10-27T07:02:06.019Z,92775.13
2023-10-27T07:04:32.845Z,92777.59
2023-10-27T07:06:59.860Z,92784.78
2023-10-27T07:09:27.611Z,92791.59
2023-10-27T07:11:57.236Z,92786.75
2023-10-27T07:14:24.057Z,92788.09
2023-10-27T07:16:53.423Z,92782.09
2023-10-27T07:19:21.937Z,92785.28
2023-10-27T07:21:48.896Z,92790.50
2023-10-27T07:24:15.968Z,92791.00
2023-10-27T07:26:42.813Z,92794.06
2023-10-27T07:29:10.195Z,92799.31
2023-10-27T07:31:39.257Z,92801.13
2023-10-27T07:34:09.211Z,92804.25
2023-10-27T07:36:36.237Z,92810.47
2023-10-27T07:39:03.561Z,92812.63
2023-10-27T07:41:30.419Z,92806.41
2023-10-27T07:43:57.199Z,92813.50
2023-10-27T07:46:23.941Z,92810.75
2023-10-27T07:48:51.172Z,92806.00
2023-10-27T07:51:18.002Z,92804.19
2023-10-27T07:53:45.042Z,92807.00
2023-10-27T07:56:12.185Z,92795.03
2023-10-27T07:58:39.885Z,92812.19
2023-10-27T08:01:07.225Z,92804.91
2023-10-27T08:03:35.222Z,92810.09
2023-10-27T08:06:05.991Z,92813.09
2023-10-27T08:08:33.613Z,92811.16
2023-10-27T08:11:00.978Z,92809.03
2023-10-27T08:13:28.076Z,92817.47
2023-10-27T08:15:54.918Z,92814.72
2023-10-27T08:18:22.402Z,92827.53
2023-10-27T08:20:51.451Z,92831.19
2023-10-27T08:23:18.191Z,92837.81
2023-10-27T08:25:51.631Z,92844.94
2023-10-27T08:28:19.696Z,92841.34
2023-10-27T08:30:46.681Z,92850.25
2023-10-27T08:33:15.623Z,92846.72
2023-10-27T08:35:42.601Z,92857.06
2023-10-27T08:38:09.433Z,92852.50
2023-10-27T08:40:36.700Z,92857.13
2023-10-27T08:43:06.768Z,92858.38
2023-10-27T08:45:34.063Z,92856.72
2023-10-27T08:48:02.077Z,92864.09
2023-10-27T08:50:32.537Z,92876.03
2023-10-27T08:53:00.702Z,92875.78
2023-10-27T08:55:28.367Z,92872.47
2023-10-27T08:57:57.192Z,92893.94
2023-10-27T09:00:24.033Z,92907.72
2023-10-27T09:02:50.819Z,92903.94
2023-10-27T09:05:18.928Z,92918.94
2023-10-27T09:07:47.111Z,92927.81
2023-10-27T09:10:14.526Z,92930.47
2023-10-27T09:12:42.759Z,92935.00
2023-10-27T09:15:11.083Z,92936.88
2023-10-27T09:17:55.384Z,92934.69
2023-10-27T09:20:22.972Z,92937.53
2023-10-27T09:23:16.159Z,92949.50
2023-10-27T09:25:45.282Z,92967.88
2023-10-27T09:28:12.641Z,92956.22
2023-10-27T09:30:42.280Z,92971.16
2023-10-27T09:33:27.731Z,92967.69
2023-10-27T09:35:55.397Z,92967.25
2023-10-27T09:38:23.751Z,92981.13
2023-10-27T09:40:51.333Z,92987.50
2023-10-27T09:43:22.650Z,92984.56
2023-10-27T09:45:53.137Z,93002.91
2023-10-27T09:48:28.999Z,92993.91
2023-10-27T09:51:12.953Z,92984.69
2023-10-27T09:53:40.736Z,92988.22
2023-10-27T09:56:09.235Z,92988.78
2023-10-27T09:58:37.051Z,92986.09
2023-10-27T10:01:05.235Z,92983.66
2023-10-27T10:03:33.455Z,92993.28
2023-10-27T10:06:18.905Z,92984.00
2023-10-27T10:09:11.744Z,92980.38
2023-10-27T10:11:51.517Z,92986.19
2023-10-27T10:14:37.190Z,92980.88
2023-10-27T10:17:05.510Z,92982.75
2023-10-27T10:19:52.101Z,92975.31
2023-10-27T10:22:43.698Z,92965.41
2023-10-27T10:25:16.818Z,92964.63
2023-10-27T10:28:08.803Z,92962.31
2023-10-27T10:30:40.734Z,92965.38
2023-10-27T10:33:30.340Z,92956.94
2023-10-27T10:36:13.123Z,92947.44
2023-10-27T10:38:42.362Z,92968.22
2023-10-27T10:41:09.163Z,92946.94
2023-10-27T10:43:39.443Z,92941.94
2023-10-27T10:46:14.069Z,92948.31
2023-10-27T10:48:45.931Z,92958.84
2023-10-27T10:51:53.335Z,92955.13
2023-10-27T10:54:21.812Z,92966.50
2023-10-27T10:56:48.556Z,92972.25
2023-10-27T10:59:21.703Z,92961.16
2023-10-27T11:01:56.196Z,92952.75
2023-10-27T11:07:06.140Z,92956.72
2023-10-27T11:09:33.143Z,92946.09
2023-10-27T11:12:01.318Z,92950.53
2023-10-27T11:14:28.302Z,92939.81
2023-10-27T11:16:57.198Z,92952.81
2023-10-27T11:19:24.082Z,92953.50
2023-10-27T11:21:55.161Z,92946.69
2023-10-27T11:24:23.697Z,92956.41
2023-10-27T11:26:51.139Z,92944.88
2023-10-27T11:29:18.270Z,92954.09
2023-10-27T11:31:47.062Z,92956.69
2023-10-27T11:34:27.641Z,92969.91
2023-10-27T11:37:09.609Z,92983.31
2023-10-27T11:39:37.404Z,92975.69
2023-10-27T11:42:04.690Z,92998.00
2023-10-27T11:44:36.474Z,92990.97
2023-10-27T11:47:03.485Z,92987.38
2023-10-27T11:49:31.764Z,93001.63
2023-10-27T11:51:58.901Z,92988.72
2023-10-27T11:54:27.576Z,93001.31
2023-10-27T11:56:54.622Z,92983.94
2023-10-27T11:59:26.374Z,92993.56
2023-10-27T12:01:54.245Z,92994.66
2023-10-27T12:04:21.552Z,93002.44
2023-10-27T12:06:48.845Z,93010.63
2023-10-27T12:09:15.676Z,92984.59
2023-10-27T12:11:42.679Z,92996.31
2023-10-27T12:14:12.012Z,93008.19
2023-10-27T12:16:39.238Z,93000.06
2023-10-27T12:19:06.140Z,92996.00
2023-10-27T12:21:34.295Z,93015.72
2023-10-27T12:24:01.335Z,93002.97
2023-10-27T12:26:28.928Z,92997.00
2023-10-27T12:28:55.980Z,93004.69
2023-10-27T12:31:22.823Z,93008.97
2023-10-27T12:33:52.882Z,93009.19
2023-10-27T12:36:20.071Z,93017.28
2023-10-27T12:38:48.419Z,93013.66
2023-10-27T12:41:15.267Z,93020.44
2023-10-27T12:43:42.113Z,93013.88
2023-10-27T12:46:10.363Z,93013.88
2023-10-27T12:48:37.404Z,93022.16
2023-10-27T12:51:04.549Z,93021.53
2023-10-27T12:53:32.338Z,93007.00
2023-10-27T12:55:59.523Z,93029.53
2023-10-27T12:58:27.083Z,93046.63
2023-10-27T13:00:54.073Z,93053.34
2023-10-27T13:03:21.117Z,93060.00
2023-10-27T13:05:48.148Z,93063.78
2023-10-27T13:08:16.348Z,93085.97
2023-10-27T13:10:45.512Z,93085.31
2023-10-27T13:13:14.650Z,93081.94
2023-10-27T13:15:42.132Z,93081.28
2023-10-27T13:18:09.166Z,93083.91
2023-10-27T13:20:36.270Z,93098.75
2023-10-27T13:23:04.496Z,93090.22
2023-10-27T13:25:31.712Z,93085.78
2023-10-27T13:27:59.246Z,93097.13
2023-10-27T13:30:26.047Z,93088.22
2023-10-27T13:32:53.116Z,93075.72
2023-10-27T13:35:23.826Z,93082.84
2023-10-27T13:37:54.612Z,93083.50
2023-10-27T13:40:22.142Z,93061.97
2023-10-27T13:42:49.081Z,93081.94
2023-10-27T13:45:16.886Z,93080.19
2023-10-27T13:47:44.205Z,93073.34
2023-10-27T13:50:12.674Z,93074.66
2023-10-27T13:52:40.593Z,93078.06
2023-10-27T13:55:10.140Z,93064.19
2023-10-27T13:57:38.739Z,93092.78
2023-10-27T14:00:10.698Z,93071.22
2023-10-27T14:02:43.037Z,93077.00
2023-10-27T14:05:13.952Z,93092.31
2023-10-27T14:07:41.543Z,93088.41
2023-10-27T14:10:10.423Z,93093.09
2023-10-27T14:12:38.874Z,93115.84
2023-10-27T14:15:08.276Z,93116.34
2023-10-27T14:17:35.296Z,93110.91
2023-10-27T14:20:02.873Z,93114.25
2023-10-27T14:22:32.409Z,93126.75
2023-10-27T14:25:00.170Z,93146.75
2023-10-27T14:27:29.174Z,93128.63
2023-10-27T14:29:56.407Z,93129.25
2023-10-27T14:32:23.422Z,93133.75
2023-10-27T14:34:50.534Z,93135.91
2023-10-27T14:37:24.606Z,93136.06
2023-10-27T14:39:52.228Z,93150.28
2023-10-27T14:42:19.050Z,93156.97
2023-10-27T14:44:46.085Z,93147.63
2023-10-27T14:47:13.140Z,93155.59
2023-10-27T14:49:40.812Z,93153.56
2023-10-27T14:52:11.218Z,93159.28
2023-10-27T14:54:43.834Z,93159.47
2023-10-27T14:57:11.478Z,93161.00
2023-10-27T14:59:38.384Z,93154.47
2023-10-27T15:02:05.146Z,93157.75
2023-10-27T15:04:32.022Z,93142.31
2023-10-27T15:07:01.245Z,93141.06
2023-10-27T15:09:28.318Z,93156.22
2023-10-27T15:11:55.635Z,93149.81
2023-10-27T15:14:22.534Z,93145.28
2023-10-27T15:16:49.455Z,93150.53
2023-10-27T15:19:19.197Z,93151.97
2023-10-27T15:21:46.380Z,93156.91
2023-10-27T15:24:13.237Z,93165.16
2023-10-27T15:26:40.150Z,93154.47
2023-10-27T15:29:07.189Z,93161.50
2023-10-27T15:31:34.006Z,93159.47
2023-10-27T15:34:01.083Z,93171.56
2023-10-27T15:36:28.693Z,93174.91
2023-10-27T15:39:01.428Z,93173.25
2023-10-27T15:41:39.854Z,93177.25
2023-10-27T15:44:07.671Z,93179.94
2023-10-27T15:46:36.250Z,93175.63
2023-10-27T15:49:03.717Z,93182.91
2023-10-27T15:51:30.563Z,93181.97
2023-10-27T15:54:01.240Z,93191.75
2023-10-27T15:56:28.402Z,93187.88
2023-10-27T15:58:56.565Z,93183.50
2023-10-27T16:01:24.139Z,93182.25
2023-10-27T16:03:51.346Z,93190.38
2023-10-27T16:06:21.814Z,93185.25
2023-10-27T16:08:48.621Z,93183.78
2023-10-27T16:11:15.901Z,93197.72
2023-10-27T16:13:45.795Z,93203.59
2023-10-27T16:16:12.767Z,93200.09
2023-10-27T16:18:40.152Z,93208.19
2023-10-27T16:21:07.494Z,93209.91
2023-10-27T16:23:34.520Z,93209.03
2023-10-27T16:26:07.345Z,93211.75
2023-10-27T16:28:34.103Z,93216.91
2023-10-27T16:31:02.831Z,93229.56
2023-10-27T16:33:29.969Z,93231.91
2023-10-27T16:36:01.214Z,93219.31
2023-10-27T16:38:28.461Z,93232.72
2023-10-27T16:40:55.411Z,93242.47
2023-10-27T16:43:23.926Z,93247.22
2023-10-27T16:45:50.832Z,93260.84
2023-10-27T16:48:20.312Z,93251.78
2023-10-27T16:50:47.389Z,93253.47
2023-10-27T16:53:14.131Z,93251.63
2023-10-27T16:55:40.908Z,93255.34
2023-10-27T16:58:07.790Z,93249.63
2023-10-27T17:00:34.551Z,93246.16
2023-10-27T17:03:02.579Z,93248.03
2023-10-27T17:05:30.370Z,93259.75
2023-10-27T17:07:58.999Z,93266.06
2023-10-27T17:10:26.220Z,93261.78
2023-10-27T17:12:53.396Z,93252.59
2023-10-27T17:15:20.302Z,93262.09
2023-10-27T17:17:47.201Z,93263.44
2023-10-27T17:20:17.314Z,93260.09
2023-10-27T17:22:46.059Z,93267.31
2023-10-27T17:25:14.093Z,93273.63
2023-10-27T17:27:40.956Z,93275.69
2023-10-27T17:30:12.101Z,93278.50
2023-10-27T17:32:42.192Z,93283.31
2023-10-27T17:35:09.140Z,93288.38
2023-10-27T17:37:36.139Z,93282.13
2023-10-27T17:40:03.596Z,93285.03
2023-10-27T17:42:34.546Z,93293.00
2023-10-27T17:45:01.807Z,93296.41
2023-10-27T17:47:28.954Z,93291.09
2023-10-27T17:49:57.672Z,93297.66
2023-10-27T17:52:24.616Z,93301.47
2023-10-27T17:54:51.408Z,93297.09
2023-10-27T17:57:20.938Z,93298.72
2023-10-27T17:59:47.979Z,93296.97
2023-10-27T18:02:14.854Z,93307.47
2023-10-27T18:04:41.676Z,93307.00
2023-10-27T18:07:09.357Z,93294.06
2023-10-27T18:09:37.927Z,93291.06
2023-10-27T18:12:06.793Z,93288.28
2023-10-27T18:14:33.888Z,93294.91
2023-10-27T18:17:02.006Z,93282.44
2023-10-27T18:19:28.868Z,93292.97
2023-10-27T18:21:57.188Z,93299.94
2023-10-27T18:24:24.128Z,93301.63
2023-10-27T18:26:51.083Z,93300.66
2023-10-27T18:29:18.210Z,93300.50
2023-10-27T18:31:47.490Z,93304.69
2023-10-27T18:34:14.183Z,93307.41
2023-10-27T18:36:40.986Z,93309.03
2023-10-27T18:39:07.702Z,93317.41
2023-10-27T18:41:36.590Z,93315.94
2023-10-27T18:44:03.361Z,93312.81
2023-10-27T18:46:30.240Z,93321.53
2023-10-27T18:48:57.053Z,93323.22
2023-10-27T18:51:23.877Z,93323.09
2023-10-27T18:53:50.588Z,93326.00
2023-10-27T18:56:18.056Z,93331.66
2023-10-27T18:58:47.035Z,93330.41
2023-10-27T19:01:15.807Z,93324.59
2023-10-27T19:03:44.704Z,93317.38
2023-10-27T19:06:12.318Z,93330.69
2023-10-27T19:08:39.349Z,93323.59
2023-10-27T19:11:08.879Z,93326.94
2023-10-27T19:13:37.176Z,93328.75
2023-10-27T19:16:05.627Z,93335.06
2023-10-27T19:18:37.072Z,93340.06
2023-10-27T19:21:13.734Z,93337.88
2023-10-27T19:23:44.152Z,93331.09
2023-10-27T19:26:16.104Z,93333.88
2023-10-27T19:28:44.348Z,93333.91
2023-10-27T19:31:15.750Z,93340.28
2023-10-27T19:33:45.207Z,93346.00
2023-10-27T19:36:13.280Z,93344.50
2023-10-27T19:38:41.465Z,93345.44
2023-10-27T19:41:09.457Z,93353.69
2023-10-27T19:43:36.645Z,93350.91
2023-10-27T19:46:10.580Z,93354.97
2023-10-27T19:48:39.447Z,93362.53
2023-10-27T19:51:06.830Z,93355.19
2023-10-27T19:53:35.502Z,93369.78
2023-10-27T19:56:02.683Z,93362.34
2023-10-27T19:58:29.770Z,93370.25
2023-10-27T20:00:56.751Z,93372.44
2023-10-27T20:03:23.678Z,93373.56
2023-10-27T20:05:52.459Z,93378.16
2023-10-27T20:08:19.682Z,93375.06
2023-10-27T20:10:50.125Z,93371.41
2023-10-27T20:13:17.324Z,93364.59
2023-10-27T20:15:46.121Z,93360.66
2023-10-27T20:18:13.228Z,93371.38
2023-10-27T20:20:45.591Z,93367.28
2023-10-27T20:23:13.366Z,93368.56
2023-10-27T20:25:40.516Z,93363.78
2023-10-27T20:28:11.333Z,93359.44
2023-10-27T20:30:39.124Z,93356.72
2023-10-27T20:33:07.235Z,93348.97
2023-10-27T20:35:34.103Z,93348.47
2023-10-27T20:38:01.140Z,93350.50
2023-10-27T20:40:28.018Z,93349.94
2023-10-27T20:42:56.665Z,93344.44
2023-10-27T20:45:24.310Z,93348.53
2023-10-27T20:47:52.169Z,93344.69
2023-10-27T20:50:22.019Z,93351.53
2023-10-27T20:52:48.977Z,93348.06
2023-10-27T20:55:19.714Z,93352.78
2023-10-27T20:57:48.120Z,93354.13
2023-10-27T21:00:16.830Z,93358.63
2023-10-27T21:02:44.524Z,93367.50
2023-10-27T21:05:11.855Z,93366.59
2023-10-27T21:07:38.954Z,93370.59
2023-10-27T21:10:06.837Z,93365.00
2023-10-27T21:12:33.874Z,93366.75
2023-10-27T21:15:01.182Z,93356.31
2023-10-27T21:17:28.730Z,93362.41
2023-10-27T21:19:56.035Z,93362.22
2023-10-27T21:22:23.566Z,93365.69
2023-10-27T21:24:53.109Z,93363.53
2023-10-27T21:27:21.228Z,93371.63
2023-10-27T21:29:51.509Z,93365.47
2023-10-27T21:32:19.260Z,93362.22
2023-10-27T21:34:46.997Z,93365.88
2023-10-27T21:37:15.059Z,93358.59
2023-10-27T21:39:46.246Z,93358.81
2023-10-27T21:42:14.007Z,93358.31
2023-10-27T21:44:40.831Z,93355.16
2023-10-27T21:47:09.203Z,93356.06
2023-10-27T21:49:36.286Z,93356.09
2023-10-27T21:52:06.621Z,93349.91
2023-10-27T21:54:34.415Z,93351.78
2023-10-27T21:57:02.140Z,93351.25
2023-10-27T21:59:29.362Z,93358.84
2023-10-27T22:01:56.172Z,93352.13
2023-10-27T22:04:23.583Z,93360.31
2023-10-27T22:06:50.465Z,93354.69
2023-10-27T22:09:17.400Z,93357.88
2023-10-27T22:11:46.044Z,93361.03
2023-10-27T22:14:12.798Z,93364.97
2023-10-27T22:16:40.904Z,93365.25
2023-10-27T22:19:10.444Z,93363.13
2023-10-27T22:21:37.341Z,93362.94
2023-10-27T22:24:04.485Z,93366.34
2023-10-27T22:26:31.233Z,93366.13
2023-10-27T22:28:58.788Z,93361.84
2023-10-27T22:31:25.611Z,93369.75
2023-10-27T22:33:52.552Z,93369.00
2023-10-27T22:36:20.501Z,93370.63
2023-10-27T22:38:49.112Z,93378.97
2023-10-27T22:41:16.113Z,93375.00
2023-10-27T22:43:43.170Z,93380.00
2023-10-27T22:46:13.290Z,93384.25
2023-10-27T22:48:40.140Z,93380.84
2023-10-27T22:51:12.834Z,93386.63
2023-10-27T22:53:41.042Z,93388.47
2023-10-27T22:56:09.101Z,93392.13
2023-10-27T22:58:36.016Z,93396.84
2023-10-27T23:01:05.841Z,93396.03
2023-10-27T23:03:32.990Z,93404.19
2023-10-27T23:06:10.127Z,93412.81
2023-10-27T23:08:37.514Z,93418.59
2023-10-27T23:11:12.381Z,93420.16
2023-10-27T23:13:40.956Z,93414.66
2023-10-27T23:16:08.807Z,93412.56
2023-10-27T23:18:42.038Z,93417.00
2023-10-27T23:21:09.695Z,93416.75
2023-10-27T23:23:37.432Z,93420.13
2023-10-27T23:26:08.271Z,93426.69
2023-10-27T23:28:36.208Z,93421.19
2023-10-27T23:31:04.244Z,93426.72
2023-10-27T23:33:31.352Z,93431.16
2023-10-27T23:36:01.110Z,93429.78
2023-10-27T23:38:32.139Z,93444.69
2023-10-27T23:41:05.324Z,93438.94
2023-10-27T23:43:32.716Z,93450.34
2023-10-27T23:46:00.725Z,93462.66
2023-10-27T23:48:31.008Z,93472.13
2023-10-27T23:50:59.140Z,93467.13
2023-10-27T23:53:28.335Z,93478.41
2023-10-27T23:55:55.667Z,93478.91
2023-10-27T23:58:22.514Z,93485.22
